createdAt,value
2024-03-09T00:01:05.469Z,84.58
2024-03-09T00:03:32.891Z,84.59
2024-03-09T00:05:59.864Z,84.64
2024-03-09T00:08:27.355Z,85.04
2024-03-09T00:10:54.821Z,85.21
2024-03-09T00:13:21.812Z,85.00
2024-03-09T00:15:48.679Z,85.15
2024-03-09T00:18:20.561Z,85.25
2024-03-09T00:20:56.384Z,84.81
2024-03-09T00:23:23.982Z,85.03
2024-03-09T00:25:50.759Z,85.36
2024-03-09T00:28:17.690Z,85.48
2024-03-09T00:30:51.222Z,85.48
2024-03-09T00:33:18.094Z,84.69
2024-03-09T00:35:45.862Z,84.70
2024-03-09T00:38:12.898Z,84.46
2024-03-09T00:40:40.257Z,84.89
2024-03-09T00:43:08.611Z,84.85
2024-03-09T00:45:35.867Z,85.01
2024-03-09T00:48:05.253Z,85.46
2024-03-09T00:50:32.615Z,85.65
2024-03-09T00:52:59.613Z,85.99
2024-03-09T00:55:26.918Z,85.81
2024-03-09T00:57:55.706Z,85.71
2024-03-09T01:00:25.868Z,86.29
2024-03-09T01:02:53.586Z,85.82
2024-03-09T01:05:24.447Z,85.83
2024-03-09T01:07:52.500Z,85.85
2024-03-09T01:10:19.711Z,85.58
2024-03-09T01:12:46.828Z,87.47
2024-03-09T01:15:15.430Z,86.00
2024-03-09T01:17:42.487Z,85.65
2024-03-09T01:20:10.291Z,86.20
2024-03-09T01:22:38.629Z,85.81
2024-03-09T01:25:08.055Z,85.58
2024-03-09T01:27:35.281Z,85.53
2024-03-09T01:30:02.845Z,85.93
2024-03-09T01:32:30.156Z,85.99
2024-03-09T01:34:58.146Z,85.38
2024-03-09T01:37:25.990Z,85.25
2024-03-09T01:39:53.668Z,85.98
2024-03-09T01:42:22.910Z,85.29
2024-03-09T01:44:50.893Z,85.41
2024-03-09T01:47:23.828Z,85.54
2024-03-09T01:49:52.302Z,85.55
2024-03-09T01:52:20.587Z,85.23
2024-03-09T01:54:48.794Z,84.87
2024-03-09T01:57:16.547Z,85.15
2024-03-09T01:59:45.280Z,85.17
2024-03-09T02:02:12.655Z,85.20
2024-03-09T02:04:39.690Z,85.25
2024-03-09T02:07:07.701Z,85.34
2024-03-09T02:09:35.717Z,84.90
2024-03-09T02:12:07.763Z,85.34
2024-03-09T02:14:34.840Z,85.30
2024-03-09T02:17:06.796Z,85.46
2024-03-09T02:19:33.984Z,85.69
2024-03-09T02:22:01.069Z,85.90
2024-03-09T02:24:32.273Z,85.81
2024-03-09T02:27:01.328Z,86.13
2024-03-09T02:29:29.302Z,85.38
2024-03-09T02:31:57.128Z,85.18
2024-03-09T02:34:24.101Z,85.62
2024-03-09T02:36:51.018Z,85.77
2024-03-09T02:39:18.166Z,86.16
2024-03-09T02:41:45.176Z,86.03
2024-03-09T02:44:21.321Z,85.80
2024-03-09T02:46:48.253Z,85.92
2024-03-09T02:49:15.054Z,86.32
2024-03-09T02:51:42.507Z,86.92
2024-03-09T02:54:09.256Z,87.37
2024-03-09T02:56:36.020Z,87.05
2024-03-09T02:59:03.255Z,87.15
2024-03-09T03:01:30.233Z,86.26
2024-03-09T03:04:01.488Z,85.66
2024-03-09T03:06:29.934Z,85.68
2024-03-09T03:08:58.985Z,86.25
2024-03-09T03:11:25.959Z,85.93
2024-03-09T03:13:54.353Z,85.43
2024-03-09T03:16:27.618Z,85.59
2024-03-09T03:18:54.987Z,85.86
2024-03-09T03:21:22.019Z,85.17
2024-03-09T03:23:49.443Z,85.17
2024-03-09T03:26:17.397Z,84.99
2024-03-09T03:28:51.122Z,84.76
2024-03-09T03:31:18.835Z,84.78
2024-03-09T03:33:47.241Z,84.92
2024-03-09T03:36:17.110Z,84.94
2024-03-09T03:38:44.003Z,84.41
2024-03-09T03:41:12.131Z,84.34
2024-03-09T03:43:39.612Z,83.87
2024-03-09T03:46:09.067Z,84.20
2024-03-09T03:48:35.926Z,84.22
2024-03-09T03:51:02.980Z,83.95
2024-03-09T03:53:30.386Z,83.00
2024-03-09T03:55:57.259Z,82.88
2024-03-09T03:58:25.057Z,83.12
2024-03-09T04:00:52.691Z,82.86
2024-03-09T04:03:22.131Z,82.94
2024-03-09T04:05:51.808Z,83.13
2024-03-09T04:08:18.701Z,83.20
2024-03-09T04:10:51.609Z,82.84
2024-03-09T04:13:22.124Z,82.90
2024-03-09T04:15:49.301Z,83.11
2024-03-09T04:18:16.330Z,82.87
2024-03-09T04:20:43.215Z,83.20
2024-03-09T04:23:10.892Z,83.34
2024-03-09T04:25:40.662Z,83.48
2024-03-09T04:28:07.904Z,83.53
2024-03-09T04:30:35.448Z,83.64
2024-03-09T04:33:06.314Z,83.43
2024-03-09T04:35:35.390Z,83.21
2024-03-09T04:38:09.032Z,83.04
2024-03-09T04:40:35.816Z,83.22
2024-03-09T04:43:04.842Z,83.29
2024-03-09T04:45:33.275Z,82.86
2024-03-09T04:48:01.046Z,83.02
2024-03-09T04:50:28.302Z,83.06
2024-03-09T04:52:55.634Z,83.04
2024-03-09T04:55:23.866Z,82.79
2024-03-09T04:57:51.621Z,83.54
2024-03-09T05:00:20.838Z,83.29
2024-03-09T05:02:48.948Z,83.27
2024-03-09T05:05:16.371Z,83.43
2024-03-09T05:07:44.772Z,83.35
2024-03-09T05:10:13.278Z,83.12
2024-03-09T05:12:40.134Z,83.19
2024-03-09T05:15:07.900Z,83.83
2024-03-09T05:17:34.795Z,83.88
2024-03-09T05:20:12.669Z,83.89
2024-03-09T05:22:40.093Z,84.24
2024-03-09T05:25:12.244Z,84.47
2024-03-09T05:27:43.920Z,84.31
2024-03-09T05:30:14.868Z,84.44
2024-03-09T05:32:52.187Z,84.92
2024-03-09T05:35:19.415Z,85.04
2024-03-09T05:37:46.192Z,85.47
2024-03-09T05:40:14.732Z,85.11
2024-03-09T05:42:45.183Z,85.23
2024-03-09T05:45:19.777Z,85.36
2024-03-09T05:47:48.591Z,85.30
2024-03-09T05:50:17.137Z,85.26
2024-03-09T05:52:45.819Z,85.38
2024-03-09T05:55:13.725Z,86.17
2024-03-09T05:57:44.594Z,86.23
2024-03-09T06:00:12.013Z,85.71
2024-03-09T06:02:43.532Z,85.79
2024-03-09T06:05:12.238Z,85.51
2024-03-09T06:07:40.070Z,85.89
2024-03-09T06:10:11.314Z,86.13
2024-03-09T06:12:39.730Z,85.75
2024-03-09T06:15:09.790Z,85.91
2024-03-09T06:17:36.639Z,85.95
2024-03-09T06:20:03.616Z,85.78
2024-03-09T06:22:34.550Z,85.94
2024-03-09T06:25:01.408Z,85.57
2024-03-09T06:27:31.130Z,85.33
2024-03-09T06:29:57.983Z,85.96
2024-03-09T06:32:27.164Z,86.29
2024-03-09T06:34:57.147Z,86.34
2024-03-09T06:37:23.967Z,86.28
2024-03-09T06:39:51.261Z,86.20
2024-03-09T06:42:20.310Z,86.63
2024-03-09T06:44:47.109Z,86.63
2024-03-09T06:47:15.091Z,87.13
2024-03-09T06:49:42.075Z,86.72
2024-03-09T06:52:09.127Z,86.59
2024-03-09T06:54:36.005Z,87.15
2024-03-09T06:57:02.747Z,86.25
2024-03-09T06:59:29.638Z,86.38
2024-03-09T07:02:01.253Z,86.51
2024-03-09T07:04:28.770Z,85.25
2024-03-09T07:06:57.647Z,85.16
2024-03-09T07:09:24.684Z,86.02
2024-03-09T07:11:54.489Z,85.95
2024-03-09T07:14:23.936Z,85.77
2024-03-09T07:16:53.051Z,86.00
2024-03-09T07:19:22.080Z,86.17
2024-03-09T07:21:49.320Z,85.83
2024-03-09T07:24:16.076Z,85.80
2024-03-09T07:26:42.860Z,85.29
2024-03-09T07:29:12.162Z,85.54
2024-03-09T07:31:39.728Z,85.46
2024-03-09T07:34:06.595Z,85.00
2024-03-09T07:36:33.519Z,85.00
2024-03-09T07:39:01.782Z,83.58
2024-03-09T07:41:28.573Z,82.99
2024-03-09T07:43:55.481Z,82.44
2024-03-09T07:46:22.513Z,81.57
2024-03-09T07:48:49.766Z,81.84
2024-03-09T07:51:16.774Z,81.16
2024-03-09T07:53:43.857Z,80.41
2024-03-09T07:56:13.550Z,80.37
2024-03-09T07:58:40.797Z,79.36
2024-03-09T08:01:09.531Z,79.27
2024-03-09T08:03:36.417Z,79.69
2024-03-09T08:06:03.238Z,79.19
2024-03-09T08:08:30.933Z,79.81
2024-03-09T08:10:58.776Z,79.71
2024-03-09T08:13:26.676Z,79.51
2024-03-09T08:15:56.756Z,79.81
2024-03-09T08:18:23.810Z,79.99
2024-03-09T08:20:51.305Z,79.97
2024-03-09T08:23:19.149Z,79.97
2024-03-09T08:25:46.814Z,80.25
2024-03-09T08:28:14.489Z,80.51
2024-03-09T08:30:42.556Z,80.74
2024-03-09T08:33:10.947Z,80.29
2024-03-09T08:35:37.923Z,80.57
2024-03-09T08:38:05.024Z,80.37
2024-03-09T08:40:32.862Z,80.83
2024-03-09T08:42:59.975Z,80.86
2024-03-09T08:45:28.944Z,80.20
2024-03-09T08:47:56.306Z,79.52
2024-03-09T08:50:24.512Z,80.08
2024-03-09T08:52:51.672Z,79.70
2024-03-09T08:55:20.331Z,80.91
2024-03-09T08:57:50.589Z,80.50
2024-03-09T09:00:21.444Z,79.51
2024-03-09T09:02:49.605Z,79.02
2024-03-09T09:05:17.380Z,78.86
2024-03-09T09:07:46.123Z,79.03
2024-03-09T09:10:13.208Z,79.10
2024-03-09T09:12:43.024Z,78.42
2024-03-09T09:15:10.427Z,78.30
2024-03-09T09:17:37.807Z,77.83
2024-03-09T09:20:13.894Z,78.46
2024-03-09T09:22:42.310Z,77.99
2024-03-09T09:25:14.038Z,77.82
2024-03-09T09:27:47.303Z,77.25
2024-03-09T09:30:14.208Z,76.91
2024-03-09T09:32:45.144Z,77.07
2024-03-09T09:35:13.884Z,77.26
2024-03-09T09:37:41.053Z,76.65
2024-03-09T09:40:09.058Z,76.07
2024-03-09T09:42:37.074Z,76.14
2024-03-09T09:45:05.253Z,75.67
2024-03-09T09:47:32.335Z,75.53
2024-03-09T09:50:00.475Z,75.58
2024-03-09T09:52:28.864Z,75.67
2024-03-09T09:55:00.459Z,75.64
2024-03-09T09:57:27.567Z,74.97
2024-03-09T09:59:55.774Z,75.61
2024-03-09T10:02:24.455Z,75.74
2024-03-09T10:04:52.590Z,74.83
2024-03-09T10:07:19.711Z,74.17
2024-03-09T10:09:49.206Z,74.12
2024-03-09T10:12:22.673Z,73.68
2024-03-09T10:14:50.752Z,74.14
2024-03-09T10:17:21.892Z,74.32
2024-03-09T10:19:53.051Z,73.58
2024-03-09T10:22:20.708Z,73.54
2024-03-09T10:24:54.399Z,73.58
2024-03-09T10:27:22.557Z,73.81
2024-03-09T10:29:50.110Z,72.63
2024-03-09T10:32:19.729Z,72.29
2024-03-09T10:34:46.711Z,71.81
2024-03-09T10:37:19.679Z,72.12
2024-03-09T10:39:48.720Z,71.64
2024-03-09T10:42:16.851Z,72.21
2024-03-09T10:44:44.171Z,71.29
2024-03-09T10:47:15.212Z,70.86
2024-03-09T10:49:44.809Z,70.50
2024-03-09T10:52:13.187Z,69.41
2024-03-09T10:55:00.755Z,68.78
2024-03-09T10:57:30.684Z,68.29
2024-03-09T10:59:58.994Z,68.10
2024-03-09T11:02:26.014Z,67.99
2024-03-09T11:04:53.231Z,68.27
2024-03-09T11:07:22.879Z,67.88
2024-03-09T11:09:53.818Z,68.47
2024-03-09T11:12:21.910Z,67.56
2024-03-09T11:14:54.216Z,67.52
2024-03-09T11:17:25.662Z,66.87
2024-03-09T11:20:01.461Z,67.31
2024-03-09T11:22:41.879Z,67.22
2024-03-09T11:25:12.704Z,66.42
2024-03-09T11:27:47.756Z,67.01
2024-03-09T11:30:19.130Z,66.74
2024-03-09T11:32:48.056Z,66.66
2024-03-09T11:35:34.181Z,67.44
2024-03-09T11:38:19.302Z,66.51
2024-03-09T11:40:47.994Z,66.37
2024-03-09T11:43:24.523Z,66.07
2024-03-09T11:45:51.458Z,66.17
2024-03-09T11:48:19.306Z,67.08
2024-03-09T11:50:46.296Z,65.34
2024-03-09T11:53:13.266Z,65.11
2024-03-09T11:55:40.379Z,65.08
2024-03-09T11:58:10.416Z,65.14
2024-03-09T12:00:37.360Z,65.01
2024-03-09T12:03:16.376Z,64.47
2024-03-09T12:05:44.672Z,64.31
2024-03-09T12:08:12.827Z,63.91
2024-03-09T12:10:40.347Z,63.69
2024-03-09T12:13:07.791Z,63.66
2024-03-09T12:15:40.842Z,63.96
2024-03-09T12:18:10.021Z,63.52
2024-03-09T12:20:37.168Z,63.50
2024-03-09T12:23:04.387Z,63.97
2024-03-09T12:25:32.545Z,63.53
2024-03-09T12:27:59.525Z,63.28
2024-03-09T12:30:26.840Z,62.88
2024-03-09T12:32:54.149Z,62.69
2024-03-09T12:35:21.158Z,62.59
2024-03-09T12:37:48.307Z,62.24
2024-03-09T12:40:22.250Z,62.24
2024-03-09T12:42:49.571Z,62.34
2024-03-09T12:45:23.794Z,61.90
2024-03-09T12:47:57.313Z,62.67
2024-03-09T12:50:24.959Z,62.75
2024-03-09T12:52:55.280Z,62.76
2024-03-09T12:55:26.490Z,62.44
2024-03-09T12:57:54.050Z,62.12
2024-03-09T13:00:21.839Z,62.65
2024-03-09T13:02:52.166Z,62.23
2024-03-09T13:05:20.637Z,60.49
2024-03-09T13:07:53.047Z,60.69
2024-03-09T13:10:22.905Z,60.39
2024-03-09T13:12:49.888Z,60.52
2024-03-09T13:15:21.952Z,60.49
2024-03-09T13:17:51.840Z,60.99
2024-03-09T13:20:19.470Z,61.31
2024-03-09T13:22:46.832Z,61.57
2024-03-09T13:25:13.714Z,61.36
2024-03-09T13:27:41.084Z,61.23
2024-03-09T13:30:18.192Z,60.99
2024-03-09T13:32:48.381Z,61.13
2024-03-09T13:35:21.255Z,61.09
2024-03-09T13:37:48.742Z,61.67
2024-03-09T13:40:16.142Z,61.65
2024-03-09T13:42:42.969Z,61.82
2024-03-09T13:45:11.337Z,61.85
2024-03-09T13:47:41.960Z,61.88
2024-03-09T13:50:09.834Z,62.09
2024-03-09T13:52:37.645Z,62.76
2024-03-09T13:55:05.071Z,63.75
2024-03-09T13:57:31.897Z,64.33
2024-03-09T13:59:59.068Z,62.36
2024-03-09T14:02:27.184Z,62.24
2024-03-09T14:04:54.252Z,62.46
2024-03-09T14:07:24.057Z,62.25
2024-03-09T14:09:50.952Z,62.18
2024-03-09T14:12:24.232Z,62.65
2024-03-09T14:14:56.089Z,62.28
2024-03-09T14:17:23.553Z,63.13
2024-03-09T14:19:52.467Z,63.18
2024-03-09T14:22:22.674Z,62.84
2024-03-09T14:24:51.802Z,63.51
2024-03-09T14:27:21.986Z,63.35
2024-03-09T14:29:49.921Z,63.58
2024-03-09T14:32:19.592Z,63.02
2024-03-09T14:34:47.078Z,63.53
2024-03-09T14:37:14.434Z,63.27
2024-03-09T14:39:41.634Z,63.24
2024-03-09T14:42:08.414Z,64.28
2024-03-09T14:44:40.610Z,64.64
2024-03-09T14:47:15.184Z,64.64
2024-03-09T14:49:47.541Z,65.80
2024-03-09T14:52:15.653Z,65.91
2024-03-09T14:54:43.787Z,65.72
2024-03-09T14:57:11.416Z,65.87
2024-03-09T14:59:38.363Z,65.91
2024-03-09T15:02:08.896Z,65.49
2024-03-09T15:04:38.257Z,66.10
2024-03-09T15:07:07.523Z,66.13
2024-03-09T15:09:34.659Z,66.11
2024-03-09T15:12:01.573Z,66.39
2024-03-09T15:14:28.611Z,65.43
2024-03-09T15:16:57.702Z,65.08
2024-03-09T15:19:25.573Z,64.46
2024-03-09T15:21:53.607Z,64.72
2024-03-09T15:24:21.555Z,64.86
2024-03-09T15:26:55.586Z,64.89
2024-03-09T15:29:32.176Z,64.66
2024-03-09T15:32:07.059Z,64.94
2024-03-09T15:34:35.331Z,65.93
2024-03-09T15:37:02.813Z,65.64
2024-03-09T15:39:33.455Z,66.00
2024-03-09T15:42:02.513Z,65.89
2024-03-09T15:44:29.430Z,66.41
2024-03-09T15:46:56.397Z,66.62
2024-03-09T15:49:23.179Z,66.54
2024-03-09T15:51:49.988Z,66.55
2024-03-09T15:54:20.154Z,66.61
2024-03-09T15:56:48.964Z,66.98
2024-03-09T15:59:15.993Z,67.62
2024-03-09T16:01:42.839Z,67.30
2024-03-09T16:04:11.930Z,66.95
2024-03-09T16:06:39.060Z,67.49
2024-03-09T16:09:13.848Z,67.09
2024-03-09T16:11:42.310Z,67.00
2024-03-09T16:14:14.133Z,67.26
2024-03-09T16:16:42.348Z,66.85
2024-03-09T16:19:11.856Z,66.68
2024-03-09T16:21:40.346Z,66.47
2024-03-09T16:24:09.102Z,67.11
2024-03-09T16:26:36.277Z,66.89
2024-03-09T16:29:10.521Z,66.95
2024-03-09T16:31:40.987Z,66.88
2024-03-09T16:34:08.782Z,67.10
2024-03-09T16:36:35.681Z,66.97
2024-03-09T16:39:07.514Z,67.25
2024-03-09T16:41:40.488Z,67.52
2024-03-09T16:44:15.222Z,67.41
2024-03-09T16:46:46.999Z,67.81
2024-03-09T16:49:28.577Z,68.38
2024-03-09T16:52:02.994Z,68.97
2024-03-09T16:54:33.624Z,69.09
2024-03-09T16:57:01.661Z,69.34
2024-03-09T16:59:34.602Z,69.88
2024-03-09T17:02:06.493Z,70.10
2024-03-09T17:04:33.519Z,70.72
2024-03-09T17:07:03.015Z,70.87
2024-03-09T17:09:35.235Z,71.24
2024-03-09T17:12:02.842Z,71.64
2024-03-09T17:14:36.271Z,71.65
2024-03-09T17:17:03.708Z,72.13
2024-03-09T17:19:31.609Z,72.85
2024-03-09T17:21:58.663Z,73.02
2024-03-09T17:24:25.529Z,72.83
2024-03-09T17:26:52.713Z,72.97
2024-03-09T17:29:24.028Z,73.54
2024-03-09T17:31:55.742Z,73.90
2024-03-09T17:34:22.967Z,73.87
2024-03-09T17:36:50.513Z,74.14
2024-03-09T17:39:23.906Z,74.18
2024-03-09T17:41:56.315Z,74.62
2024-03-09T17:44:26.265Z,75.01
2024-03-09T17:46:57.548Z,75.62
2024-03-09T17:49:26.933Z,75.64
2024-03-09T17:51:53.846Z,75.34
2024-03-09T17:54:20.987Z,75.63
2024-03-09T17:56:48.622Z,75.60
2024-03-09T17:59:15.458Z,76.27
2024-03-09T18:01:42.737Z,76.66
2024-03-09T18:04:11.578Z,76.62
2024-03-09T18:06:38.414Z,76.45
2024-03-09T18:09:09.073Z,76.63
2024-03-09T18:11:36.080Z,77.03
2024-03-09T18:14:04.078Z,77.20
2024-03-09T18:16:34.504Z,77.59
2024-03-09T18:19:09.747Z,77.44
2024-03-09T18:21:36.911Z,79.86
2024-03-09T18:24:06.534Z,81.66
2024-03-09T18:26:34.451Z,82.67
2024-03-09T18:29:02.736Z,80.75
2024-03-09T18:31:35.666Z,79.15
2024-03-09T18:34:02.929Z,79.07
2024-03-09T18:36:31.430Z,79.50
2024-03-09T18:38:58.894Z,79.92
2024-03-09T18:41:29.118Z,80.32
2024-03-09T18:43:59.129Z,80.21
2024-03-09T18:46:26.438Z,79.34
2024-03-09T18:49:01.781Z,79.59
2024-03-09T18:51:31.248Z,80.00
2024-03-09T18:53:58.213Z,80.44
2024-03-09T18:56:25.041Z,80.36
2024-03-09T18:58:51.909Z,81.14
2024-03-09T19:01:22.891Z,81.00
2024-03-09T19:03:58.702Z,81.51
2024-03-09T19:06:30.384Z,81.54
2024-03-09T19:09:01.573Z,82.26
2024-03-09T19:11:29.634Z,82.13
2024-03-09T19:13:56.989Z,81.85
2024-03-09T19:16:24.033Z,82.28
2024-03-09T19:18:58.015Z,82.34
2024-03-09T19:21:25.824Z,82.20
2024-03-09T19:23:52.965Z,82.95
2024-03-09T19:26:19.795Z,82.61
2024-03-09T19:28:48.118Z,82.37
2024-03-09T19:31:15.102Z,83.02
2024-03-09T19:33:44.952Z,82.94
2024-03-09T19:36:11.770Z,83.38
2024-03-09T19:38:42.043Z,83.47
2024-03-09T19:41:11.974Z,82.83
2024-03-09T19:43:38.846Z,83.02
2024-03-09T19:46:06.043Z,82.77
2024-03-09T19:48:32.852Z,82.70
2024-03-09T19:51:15.148Z,83.14
2024-03-09T19:53:46.439Z,82.31
2024-03-09T19:56:13.342Z,82.26
2024-03-09T19:58:40.467Z,82.67
2024-03-09T20:01:15.574Z,82.57
2024-03-09T20:03:42.497Z,82.18
2024-03-09T20:06:09.389Z,82.33
2024-03-09T20:08:37.314Z,82.40
2024-03-09T20:11:08.165Z,82.66
2024-03-09T20:13:35.422Z,82.43
2024-03-09T20:16:02.755Z,82.30
2024-03-09T20:18:30.004Z,82.14
2024-03-09T20:20:56.980Z,82.21
2024-03-09T20:23:23.903Z,82.37
2024-03-09T20:25:53.778Z,82.30
2024-03-09T20:28:22.281Z,82.54
2024-03-09T20:30:49.294Z,82.65
2024-03-09T20:33:16.243Z,82.58
2024-03-09T20:35:43.038Z,82.68
2024-03-09T20:38:13.309Z,81.93
2024-03-09T20:40:42.762Z,82.70
2024-03-09T20:43:10.368Z,82.43
2024-03-09T20:45:39.232Z,82.11
2024-03-09T20:48:06.484Z,81.42
2024-03-09T20:50:34.153Z,81.71
2024-03-09T20:53:04.155Z,81.97
2024-03-09T20:55:31.156Z,81.19
2024-03-09T20:57:58.077Z,80.74
2024-03-09T21:00:29.694Z,80.26
2024-03-09T21:02:56.787Z,80.56
2024-03-09T21:05:23.702Z,80.45
2024-03-09T21:07:54.179Z,80.28
2024-03-09T21:10:23.246Z,80.18
2024-03-09T21:12:52.773Z,80.40
2024-03-09T21:15:20.477Z,80.31
2024-03-09T21:17:47.955Z,79.86
2024-03-09T21:20:18.603Z,79.99
2024-03-09T21:22:45.976Z,79.81
2024-03-09T21:25:13.707Z,79.39
2024-03-09T21:27:45.101Z,79.60
2024-03-09T21:30:16.113Z,79.89
2024-03-09T21:32:51.208Z,79.54
2024-03-09T21:35:20.939Z,79.37
2024-03-09T21:37:53.558Z,79.69
2024-03-09T21:40:22.404Z,80.03
2024-03-09T21:42:49.501Z,80.92
2024-03-09T21:45:16.371Z,80.85
2024-03-09T21:47:47.416Z,80.93
2024-03-09T21:50:21.711Z,81.19
2024-03-09T21:52:51.568Z,81.38
2024-03-09T21:55:20.200Z,80.83
2024-03-09T21:57:47.039Z,80.83
2024-03-09T22:00:24.383Z,81.12
2024-03-09T22:02:53.775Z,81.86
2024-03-09T22:05:21.465Z,81.51
2024-03-09T22:07:49.166Z,81.62
2024-03-09T22:10:18.574Z,82.28
2024-03-09T22:12:45.345Z,82.57
2024-03-09T22:15:13.882Z,82.55
2024-03-09T22:17:41.060Z,83.15
2024-03-09T22:20:14.925Z,84.02
2024-03-09T22:22:47.676Z,83.62
2024-03-09T22:25:18.585Z,84.08
2024-03-09T22:27:46.114Z,84.04
2024-03-09T22:30:14.139Z,84.79
2024-03-09T22:32:44.997Z,84.68
2024-03-09T22:35:12.697Z,85.14
2024-03-09T22:37:39.815Z,85.94
2024-03-09T22:40:07.965Z,86.00
2024-03-09T22:42:35.233Z,86.15
2024-03-09T22:45:04.015Z,86.77
2024-03-09T22:47:33.485Z,87.60
2024-03-09T22:50:02.477Z,88.78
2024-03-09T22:52:29.560Z,89.46
2024-03-09T22:54:56.279Z,89.49
2024-03-09T22:57:23.068Z,89.70
2024-03-09T22:59:49.901Z,90.18
2024-03-09T23:02:17.117Z,90.84
2024-03-09T23:04:44.308Z,91.33
2024-03-09T23:07:14.056Z,91.78
2024-03-09T23:09:41.353Z,92.44
2024-03-09T23:12:11.741Z,93.11
2024-03-09T23:14:39.305Z,94.05
2024-03-09T23:17:07.091Z,94.51
2024-03-09T23:19:35.806Z,95.41
2024-03-09T23:22:04.344Z,95.73
2024-03-09T23:24:31.747Z,95.92
2024-03-09T23:26:58.902Z,96.31
2024-03-09T23:29:26.163Z,96.32
2024-03-09T23:31:53.670Z,96.70
2024-03-09T23:34:23.142Z,97.15
2024-03-09T23:36:50.197Z,97.46
2024-03-09T23:39:17.211Z,97.59
2024-03-09T23:41:44.367Z,98.12
2024-03-09T23:44:14.483Z,98.24
2024-03-09T23:46:42.613Z,98.62
2024-03-09T23:49:10.790Z,99.00
2024-03-09T23:51:38.086Z,98.83
2024-03-09T23:54:06.632Z,98.94
2024-03-09T23:56:36.485Z,98.89
2024-03-09T23:59:05.684Z,98.59
